Time;durP1;ratioP1;P1;durP2;ratioP2;P2;SDS_P1;SDS_P2;PMS_P1;PMS_P2;Temp;Humidity;BMP_temperature;BMP_pressure;BME280_temperature;BME280_humidity;BME280_pressure;Samples;Min_cycle;Max_cycle;Signal;HPM_P1;HPM_P2
2022/03/25 00:01:41;;;;;;;25.42;16.75;;;4.00;99.90;;;;;;5113492;27;20055;-70
2022/03/25 00:04:07;;;;;;;25.88;16.27;;;4.10;99.90;;;;;;5113719;27;20088;-70
2022/03/25 00:06:34;;;;;;;22.15;14.85;;;4.00;99.90;;;;;;5113151;28;20382;-70
2022/03/25 00:09:00;;;;;;;21.75;14.00;;;3.90;99.90;;;;;;5114358;27;20466;-70
2022/03/25 00:11:26;;;;;;;19.77;13.80;;;3.80;99.90;;;;;;5114321;27;20085;-70
2022/03/25 00:13:52;;;;;;;19.98;13.25;;;3.80;99.90;;;;;;5114457;27;20130;-70
2022/03/25 00:16:17;;;;;;;17.48;11.75;;;3.70;99.90;;;;;;5114313;27;20760;-70
2022/03/25 00:18:43;;;;;;;19.27;12.87;;;3.70;99.90;;;;;;5113504;27;20072;-70
2022/03/25 00:21:10;;;;;;;16.80;10.83;;;3.50;99.90;;;;;;5113860;27;20339;-69
2022/03/25 00:23:36;;;;;;;13.77;8.90;;;3.50;99.90;;;;;;5113242;27;20057;-69
2022/03/25 00:26:02;;;;;;;13.37;8.80;;;3.50;99.90;;;;;;5113646;27;20505;-69
2022/03/25 00:28:28;;;;;;;14.40;9.43;;;3.40;99.90;;;;;;5113565;27;20292;-69
2022/03/25 00:30:54;;;;;;;18.88;12.35;;;3.30;99.90;;;;;;5113225;27;20067;-70
2022/03/25 00:33:20;;;;;;;17.60;11.57;;;3.40;99.90;;;;;;5093479;28;20054;-70
2022/03/25 00:35:46;;;;;;;18.45;12.70;;;3.40;99.90;;;;;;5111810;27;20043;-70
2022/03/25 00:38:12;;;;;;;15.75;10.48;;;3.30;99.90;;;;;;5113638;27;20493;-70
2022/03/25 00:40:37;;;;;;;14.43;9.52;;;3.20;99.90;;;;;;5113245;27;20046;-70
2022/03/25 00:43:03;;;;;;;13.25;8.70;;;3.20;99.90;;;;;;5113593;27;20039;-70
2022/03/25 00:45:29;;;;;;;14.35;10.10;;;3.10;99.90;;;;;;5113505;27;20047;-70
2022/03/25 00:47:59;;;;;;;14.18;9.35;;;3.10;99.90;;;;;;5113567;27;20524;-69
2022/03/25 00:50:26;;;;;;;13.43;9.15;;;3.10;99.90;;;;;;5112627;27;20478;-70
2022/03/25 00:52:52;;;;;;;17.02;10.70;;;3.10;99.90;;;;;;5112970;27;20047;-69
2022/03/25 00:55:18;;;;;;;20.02;11.95;;;3.20;99.90;;;;;;5112647;27;20073;-70
2022/03/25 00:57:44;;;;;;;16.20;10.77;;;3.20;99.90;;;;;;5095204;27;20050;-70
2022/03/25 01:00:10;;;;;;;15.00;9.32;;;3.20;99.90;;;;;;5113406;27;20039;-70
2022/03/25 01:02:36;;;;;;;14.05;9.18;;;3.20;99.90;;;;;;5131440;27;20539;-70
2022/03/25 01:05:02;;;;;;;11.55;7.57;;;3.10;99.90;;;;;;5080175;27;20061;-68
2022/03/25 01:07:27;;;;;;;12.73;8.38;;;3.10;99.90;;;;;;5105206;27;20043;-69
2022/03/25 01:09:53;;;;;;;10.43;7.43;;;3.10;99.90;;;;;;5112198;27;20049;-68
2022/03/25 01:12:21;;;;;;;10.35;6.72;;;3.00;99.90;;;;;;5112944;27;20031;-69
2022/03/25 01:14:48;;;;;;;9.85;6.45;;;3.00;99.90;;;;;;5131259;27;20577;-69
2022/03/25 01:17:15;;;;;;;12.10;8.18;;;3.00;99.90;;;;;;5095433;27;20031;-70
2022/03/25 01:19:41;;;;;;;13.80;8.85;;;2.90;99.90;;;;;;5109872;27;20112;-69
2022/03/25 01:22:07;;;;;;;11.48;7.13;;;3.00;99.90;;;;;;5112440;27;20046;-70
2022/03/25 01:24:33;;;;;;;10.77;6.88;;;2.90;99.90;;;;;;5112384;27;20042;-69
2022/03/25 01:26:59;;;;;;;8.50;6.10;;;2.90;99.90;;;;;;5112157;27;20031;-69
2022/03/25 01:29:25;;;;;;;9.27;6.13;;;2.80;99.90;;;;;;5112728;27;20043;-69
2022/03/25 01:31:51;;;;;;;13.90;9.48;;;2.80;99.90;;;;;;5112379;27;20126;-68
2022/03/25 01:34:17;;;;;;;15.20;10.00;;;2.80;99.90;;;;;;5112799;27;20031;-70
2022/03/25 01:36:42;;;;;;;14.95;10.20;;;2.80;99.90;;;;;;5112468;28;20482;-69
2022/03/25 01:39:08;;;;;;;18.65;11.55;;;2.90;99.90;;;;;;5111529;27;20050;-69
2022/03/25 01:41:34;;;;;;;16.17;10.57;;;3.00;99.90;;;;;;5112495;28;20031;-69
2022/03/25 01:44:01;;;;;;;12.05;8.00;;;3.00;99.90;;;;;;5092901;28;20370;-69
2022/03/25 01:46:27;;;;;;;11.13;7.15;;;3.00;99.90;;;;;;5112326;27;20050;-69
2022/03/25 01:48:53;;;;;;;9.77;6.68;;;2.90;99.90;;;;;;5112231;28;20042;-70
2022/03/25 01:51:23;;;;;;;11.50;7.18;;;2.80;99.90;;;;;;5107726;28;20119;-69
2022/03/25 01:53:48;;;;;;;10.18;7.07;;;2.80;99.90;;;;;;5107527;28;20523;-69
2022/03/25 01:56:22;;;;;;;13.55;8.35;;;2.70;99.90;;;;;;5110930;28;20055;-69
2022/03/25 01:58:48;;;;;;;14.68;10.15;;;2.80;99.90;;;;;;5130117;28;20039;-69
2022/03/25 02:01:14;;;;;;;;;;;2.80;99.90;;;;;;5112445;28;20039;-69
2022/03/25 02:03:40;;;;;;;12.95;8.38;;;2.80;99.90;;;;;;5107323;28;19923;-69
2022/03/25 02:06:06;;;;;;;13.43;8.68;;;2.80;99.90;;;;;;5110019;28;20095;-69
2022/03/25 02:08:32;;;;;;;14.40;9.13;;;2.70;99.90;;;;;;5095654;28;20038;-70
2022/03/25 02:10:58;;;;;;;13.52;8.68;;;2.60;99.90;;;;;;5111283;28;20417;-70
2022/03/25 02:13:25;;;;;;;10.50;7.03;;;2.50;99.90;;;;;;5112308;28;20115;-70
2022/03/25 02:15:51;;;;;;;12.75;8.20;;;2.50;99.90;;;;;;5095521;28;20063;-70
2022/03/25 02:18:20;;;;;;;12.13;7.53;;;2.50;99.90;;;;;;5111376;28;20478;-70
2022/03/25 02:20:48;;;;;;;10.90;7.20;;;2.40;99.90;;;;;;5112481;28;20047;-69
2022/03/25 02:23:14;;;;;;;10.13;6.50;;;2.40;99.90;;;;;;5111710;28;20039;-70
2022/03/25 02:25:41;;;;;;;9.07;5.90;;;2.30;99.90;;;;;;5112184;28;20043;-70
2022/03/25 02:28:07;;;;;;;13.80;8.77;;;2.30;99.90;;;;;;5111911;28;20049;-70
2022/03/25 02:30:35;;;;;;;14.90;10.13;;;2.30;99.90;;;;;;5113231;27;20035;-70
2022/03/25 02:33:02;;;;;;;15.85;9.93;;;2.30;99.90;;;;;;5116256;27;20136;-70
2022/03/25 02:35:42;;;;;;;13.98;8.98;;;2.30;99.90;;;;;;5098428;27;20039;-70
2022/03/25 02:38:09;;;;;;;18.00;11.10;;;2.30;99.90;;;;;;5115201;27;20134;-70
2022/03/25 02:40:36;;;;;;;24.60;15.55;;;2.30;99.90;;;;;;5116164;27;20033;-70
2022/03/25 02:43:02;;;;;;;23.42;13.85;;;2.40;99.90;;;;;;5115813;27;20088;-70
2022/03/25 02:45:28;;;;;;;18.73;11.73;;;2.30;99.90;;;;;;5098707;27;20035;-71
2022/03/25 02:47:53;;;;;;;18.52;11.93;;;2.40;99.90;;;;;;5115430;27;20371;-69
2022/03/25 02:50:19;;;;;;;20.27;13.47;;;2.30;99.90;;;;;;5097350;27;20153;-69
2022/03/25 02:52:45;;;;;;;20.30;12.43;;;2.30;99.90;;;;;;5098669;27;20348;-70
2022/03/25 02:55:11;;;;;;;17.00;10.75;;;2.30;99.90;;;;;;5114953;27;20074;-69
2022/03/25 02:57:37;;;;;;;15.18;9.85;;;2.30;99.90;;;;;;5097703;27;20103;-69
2022/03/25 03:00:07;;;;;;;14.35;9.40;;;2.20;99.90;;;;;;5115123;27;20047;-69
2022/03/25 03:02:37;;;;;;;14.55;9.02;;;2.20;99.90;;;;;;5131288;27;20589;-70
2022/03/25 03:05:05;;;;;;;11.48;7.97;;;2.20;99.90;;;;;;5133092;27;20095;-69
2022/03/25 03:07:30;;;;;;;12.40;7.80;;;2.10;99.90;;;;;;5114997;27;20047;-69
2022/03/25 03:09:56;;;;;;;12.00;8.02;;;2.00;99.90;;;;;;5114393;27;20054;-68
2022/03/25 03:12:22;;;;;;;11.97;7.93;;;2.10;99.90;;;;;;5115009;27;20039;-69
2022/03/25 03:14:48;;;;;;;15.85;10.90;;;2.00;99.90;;;;;;5114877;27;20401;-69
2022/03/25 03:17:15;;;;;;;14.52;9.52;;;2.10;99.90;;;;;;5097634;27;20785;-69
2022/03/25 03:19:40;;;;;;;13.48;9.02;;;2.00;99.90;;;;;;5114963;27;20043;-69
2022/03/25 03:22:06;;;;;;;13.87;9.57;;;2.00;99.90;;;;;;5112971;27;20061;-70
2022/03/25 03:24:31;;;;;;;13.13;9.37;;;1.90;99.90;;;;;;5108645;27;20289;-70
2022/03/25 03:26:58;;;;;;;10.32;7.35;;;1.90;99.90;;;;;;5078404;27;20112;-70
2022/03/25 03:29:24;;;;;;;9.38;6.22;;;1.80;99.90;;;;;;5078655;27;20055;-70
2022/03/25 03:31:50;;;;;;;6.03;4.13;;;1.70;99.90;;;;;;5114418;27;20039;-70
2022/03/25 03:34:16;;;;;;;6.03;4.57;;;1.60;99.90;;;;;;5133423;27;20034;-69
2022/03/25 03:36:41;;;;;;;6.55;4.85;;;1.60;99.90;;;;;;5114722;27;20842;-70
2022/03/25 03:39:07;;;;;;;7.37;5.30;;;1.50;99.90;;;;;;5094462;28;20088;-70
2022/03/25 03:41:33;;;;;;;6.93;4.50;;;1.50;99.90;;;;;;5094953;27;20782;-68
2022/03/25 03:43:58;;;;;;;8.80;4.93;;;1.40;99.90;;;;;;5114613;27;20039;-69
2022/03/25 03:46:24;;;;;;;6.73;4.87;;;1.40;99.90;;;;;;5114888;27;20035;-69
2022/03/25 03:48:50;;;;;;;6.85;4.70;;;1.30;99.90;;;;;;5114520;27;20031;-69
2022/03/25 03:51:16;;;;;;;7.07;4.60;;;1.30;99.90;;;;;;5114289;27;20074;-69
2022/03/25 03:53:41;;;;;;;8.83;6.27;;;1.20;99.90;;;;;;5114584;27;20462;-69
2022/03/25 03:56:07;;;;;;;6.47;4.93;;;1.10;99.90;;;;;;5113057;27;20490;-70
2022/03/25 03:58:33;;;;;;;5.75;4.05;;;1.10;99.90;;;;;;5110010;27;20368;-70
2022/03/25 04:00:59;;;;;;;7.18;5.10;;;1.10;99.90;;;;;;5114814;27;20070;-70
2022/03/25 04:03:25;;;;;;;6.35;4.63;;;1.10;99.90;;;;;;5110695;27;20052;-69
2022/03/25 04:05:50;;;;;;;9.05;6.07;;;1.10;99.90;;;;;;5105430;27;20372;-69
2022/03/25 04:08:16;;;;;;;9.47;5.67;;;1.20;99.90;;;;;;5112460;27;20103;-69
2022/03/25 04:10:42;;;;;;;7.35;5.60;;;1.10;99.90;;;;;;5107271;27;20379;-70
2022/03/25 04:13:07;;;;;;;8.33;5.90;;;1.10;99.90;;;;;;5097018;27;20043;-69
2022/03/25 04:15:34;;;;;;;8.38;6.25;;;1.20;99.90;;;;;;5113880;27;20110;-70
2022/03/25 04:18:00;;;;;;;9.40;6.93;;;1.10;99.90;;;;;;5113472;27;20035;-69
2022/03/25 04:20:27;;;;;;;8.15;5.38;;;1.10;99.90;;;;;;5113284;27;20129;-69
2022/03/25 04:22:52;;;;;;;7.50;5.28;;;1.10;99.90;;;;;;5096685;27;20038;-69
2022/03/25 04:25:18;;;;;;;7.35;4.93;;;1.00;99.90;;;;;;5096171;27;20195;-69
2022/03/25 04:27:48;;;;;;;6.35;4.43;;;1.00;99.90;;;;;;5113590;27;20042;-70
2022/03/25 04:30:18;;;;;;;5.80;4.20;;;0.90;99.90;;;;;;5096686;27;20516;-70
2022/03/25 04:32:43;;;;;;;5.25;3.60;;;0.90;99.90;;;;;;5113440;27;20167;-69
2022/03/25 04:35:09;;;;;;;4.73;3.43;;;0.80;99.90;;;;;;5111635;27;20117;-69
2022/03/25 04:37:35;;;;;;;5.90;4.18;;;0.80;99.90;;;;;;5095197;27;20074;-69
2022/03/25 04:40:03;;;;;;;6.90;4.20;;;0.80;99.90;;;;;;5108366;27;20077;-69
2022/03/25 04:42:29;;;;;;;5.63;3.97;;;0.90;99.90;;;;;;5112463;27;20047;-69
2022/03/25 04:44:55;;;;;;;6.80;4.85;;;0.80;99.90;;;;;;5094325;27;20050;-69
2022/03/25 04:47:21;;;;;;;5.65;4.22;;;0.80;99.90;;;;;;5113489;27;20040;-70
2022/03/25 04:49:46;;;;;;;6.50;4.20;;;0.70;99.90;;;;;;5103847;27;20066;-69
2022/03/25 04:52:13;;;;;;;5.60;4.03;;;0.70;99.90;;;;;;5094644;27;20425;-69
2022/03/25 04:54:38;;;;;;;6.22;4.00;;;0.60;99.90;;;;;;5110150;27;20315;-69
2022/03/25 04:57:07;;;;;;;6.05;4.20;;;0.70;99.90;;;;;;5129788;27;20042;-69
2022/03/25 04:59:33;;;;;;;5.80;3.93;;;0.60;99.90;;;;;;5111123;27;20401;-70
2022/03/25 05:01:58;;;;;;;6.33;4.17;;;0.60;99.90;;;;;;5068755;27;20297;-69
2022/03/25 05:04:25;;;;;;;5.53;3.93;;;0.60;99.90;;;;;;5090722;27;20285;-69
2022/03/25 05:06:50;;;;;;;7.22;4.90;;;0.60;99.90;;;;;;5092790;27;20284;-70
2022/03/25 05:09:17;;;;;;;7.70;5.43;;;0.60;99.90;;;;;;5085094;27;21121;-71
2022/03/25 05:11:43;;;;;;;8.63;6.00;;;0.60;99.90;;;;;;5087671;28;20368;-70
2022/03/25 05:14:10;;;;;;;7.72;5.10;;;0.80;99.90;;;;;;5089681;27;20484;-69
2022/03/25 05:16:36;;;;;;;6.75;4.55;;;0.70;99.90;;;;;;5092104;27;20474;-69
2022/03/25 05:19:02;;;;;;;5.50;4.10;;;0.80;99.90;;;;;;5127326;27;20075;-70
2022/03/25 05:21:28;;;;;;;4.97;3.60;;;0.70;99.90;;;;;;5106814;27;20132;-70
2022/03/25 05:23:54;;;;;;;4.63;3.25;;;0.70;99.90;;;;;;5111031;27;20502;-69
2022/03/25 05:26:20;;;;;;;5.30;3.70;;;0.60;99.90;;;;;;5105012;27;20031;-69
2022/03/25 05:28:46;;;;;;;3.97;2.83;;;0.50;99.90;;;;;;5108320;27;20047;-69
2022/03/25 05:31:12;;;;;;;5.43;3.88;;;0.50;99.90;;;;;;5112085;27;20394;-70
2022/03/25 05:33:38;;;;;;;6.32;4.40;;;0.50;99.90;;;;;;5077648;27;20134;-71
2022/03/25 05:36:04;;;;;;;4.10;3.03;;;0.50;99.90;;;;;;5111748;27;20043;-68
2022/03/25 05:38:32;;;;;;;6.22;4.10;;;0.50;99.90;;;;;;5106070;27;20081;-68
2022/03/25 05:40:58;;;;;;;4.80;3.50;;;0.60;99.90;;;;;;5106501;28;20039;-69
2022/03/25 05:43:24;;;;;;;6.73;4.07;;;0.60;99.90;;;;;;5073990;28;20039;-68
2022/03/25 05:45:49;;;;;;;8.23;4.97;;;0.60;99.90;;;;;;5111495;27;20950;-69
2022/03/25 05:48:15;;;;;;;9.43;5.97;;;0.70;99.90;;;;;;5078407;27;20385;-70
2022/03/25 05:50:41;;;;;;;9.93;6.78;;;0.80;99.90;;;;;;5095197;28;20039;-70
2022/03/25 05:53:06;;;;;;;10.80;7.57;;;0.90;99.90;;;;;;5103859;28;20760;-69
2022/03/25 05:55:33;;;;;;;12.07;7.68;;;0.90;99.90;;;;;;5109576;28;20053;-70
2022/03/25 05:57:58;;;;;;;11.32;7.70;;;1.00;99.90;;;;;;5108675;28;20074;-70
2022/03/25 06:00:24;;;;;;;8.80;6.23;;;1.10;99.90;;;;;;5108516;28;20085;-68
2022/03/25 06:02:50;;;;;;;8.27;6.05;;;1.20;99.90;;;;;;5094642;28;20293;-70
2022/03/25 06:05:16;;;;;;;10.95;7.07;;;1.30;99.90;;;;;;5112294;27;20047;-70
2022/03/25 06:07:43;;;;;;;10.93;7.68;;;1.40;99.90;;;;;;5114789;27;20054;-70
2022/03/25 06:10:11;;;;;;;9.77;6.63;;;1.60;99.90;;;;;;5113587;27;20039;-71
2022/03/25 06:12:37;;;;;;;7.93;5.82;;;1.70;99.90;;;;;;5115192;27;20115;-71
2022/03/25 06:15:04;;;;;;;7.55;4.93;;;1.70;99.90;;;;;;5113201;27;20062;-70
2022/03/25 06:17:30;;;;;;;7.07;4.60;;;1.70;99.90;;;;;;5111249;27;20107;-70
2022/03/25 06:19:56;;;;;;;6.90;4.40;;;1.80;99.90;;;;;;5116280;27;20446;-70
2022/03/25 06:22:24;;;;;;;5.90;4.20;;;1.80;99.90;;;;;;5112547;27;20050;-71
2022/03/25 06:24:52;;;;;;;4.63;3.13;;;1.80;99.90;;;;;;5093116;27;20045;-70
2022/03/25 06:27:18;;;;;;;4.72;3.60;;;1.80;99.90;;;;;;5113332;27;20039;-70
2022/03/25 06:29:44;;;;;;;4.63;3.42;;;2.00;99.90;;;;;;5113845;27;20035;-70
2022/03/25 06:32:10;;;;;;;4.22;3.13;;;2.00;99.90;;;;;;5134371;27;20137;-69
2022/03/25 06:34:35;;;;;;;4.90;3.55;;;2.10;99.90;;;;;;5115072;27;20080;-70
2022/03/25 06:37:02;;;;;;;5.97;4.30;;;2.20;99.90;;;;;;5134436;27;20103;-70
2022/03/25 06:39:29;;;;;;;7.93;5.25;;;2.40;99.90;;;;;;5096999;27;20114;-70
2022/03/25 06:41:55;;;;;;;7.72;5.28;;;2.60;99.90;;;;;;5114781;27;20044;-70
2022/03/25 06:44:20;;;;;;;8.02;5.35;;;2.80;99.90;;;;;;5114930;27;20035;-70
2022/03/25 06:46:46;;;;;;;7.45;5.10;;;2.90;99.90;;;;;;5112486;27;20055;-70
2022/03/25 06:49:12;;;;;;;6.75;4.68;;;3.00;99.90;;;;;;5110613;27;20035;-70
2022/03/25 06:51:39;;;;;;;6.03;3.97;;;3.20;99.90;;;;;;5115455;27;20035;-69
2022/03/25 06:54:05;;;;;;;5.88;4.00;;;3.30;99.90;;;;;;5109261;27;20442;-69
2022/03/25 06:56:35;;;;;;;6.65;4.25;;;3.40;99.90;;;;;;5110557;27;20121;-69
2022/03/25 06:59:02;;;;;;;5.55;3.88;;;3.60;99.90;;;;;;5111532;27;20129;-70
2022/03/25 07:01:31;;;;;;;5.18;3.50;;;3.90;99.90;;;;;;5133962;27;20035;-69
2022/03/25 07:03:57;;;;;;;3.97;2.92;;;4.00;99.90;;;;;;5114711;27;20054;-69
2022/03/25 07:06:24;;;;;;;5.63;3.80;;;4.30;99.90;;;;;;5115371;27;20176;-70
2022/03/25 07:08:57;;;;;;;5.57;3.88;;;4.60;99.90;;;;;;5114944;27;20043;-69
2022/03/25 07:11:24;;;;;;;6.72;4.78;;;5.10;99.90;;;;;;5107236;27;20054;-69
2022/03/25 07:13:50;;;;;;;7.45;5.47;;;5.50;99.90;;;;;;5115132;27;20047;-69
2022/03/25 07:16:17;;;;;;;6.50;4.65;;;5.70;99.90;;;;;;5113860;27;20047;-69
2022/03/25 07:18:43;;;;;;;7.18;5.07;;;6.00;99.90;;;;;;5094318;28;20036;-69
2022/03/25 07:21:09;;;;;;;7.67;5.20;;;6.30;99.90;;;;;;5112358;27;20035;-69
2022/03/25 07:23:34;;;;;;;12.60;8.85;;;6.50;99.90;;;;;;5114949;27;20277;-69
2022/03/25 07:26:02;;;;;;;16.17;11.80;;;6.70;99.90;;;;;;5114902;27;20746;-69
2022/03/25 07:28:27;;;;;;;15.90;10.55;;;6.70;99.90;;;;;;5097597;27;20066;-69
2022/03/25 07:30:53;;;;;;;16.02;10.70;;;6.90;99.90;;;;;;5115026;27;20121;-69
2022/03/25 07:33:19;;;;;;;17.33;11.68;;;7.10;99.90;;;;;;5114798;27;20043;-69
2022/03/25 07:35:44;;;;;;;17.17;11.80;;;7.30;99.90;;;;;;5097926;27;20043;-69
2022/03/25 07:38:10;;;;;;;15.23;10.48;;;7.40;99.90;;;;;;5114710;27;20415;-69
2022/03/25 07:40:36;;;;;;;14.48;10.07;;;7.60;99.90;;;;;;5096994;27;20043;-69
2022/03/25 07:43:02;;;;;;;14.18;10.15;;;7.80;99.90;;;;;;5111031;27;20145;-69
2022/03/25 07:45:28;;;;;;;19.95;13.93;;;8.00;99.90;;;;;;5114413;27;20179;-69
2022/03/25 07:47:53;;;;;;;22.55;15.95;;;8.20;99.90;;;;;;5112808;27;20355;-69
2022/03/25 07:50:23;;;;;;;24.98;17.23;;;8.40;99.90;;;;;;5114210;27;20054;-70
2022/03/25 07:52:51;;;;;;;21.98;15.93;;;8.40;99.90;;;;;;5114208;27;20047;-69
2022/03/25 07:55:18;;;;;;;28.05;18.33;;;8.60;99.90;;;;;;5114092;27;20116;-76
2022/03/25 07:57:45;;;;;;;20.50;14.68;;;8.60;99.90;;;;;;5097492;27;20418;-75
2022/03/25 08:00:13;;;;;;;15.75;11.98;;;8.70;99.90;;;;;;5112677;27;20043;-76
2022/03/25 08:02:47;;;;;;;14.20;11.18;;;8.90;99.90;;;;;;5114587;27;20072;-75
2022/03/25 08:05:14;;;;;;;16.08;12.18;;;9.10;99.90;;;;;;5096951;27;20045;-76
2022/03/25 08:07:54;;;;;;;22.65;15.20;;;9.20;99.90;;;;;;5113790;27;20078;-76
2022/03/25 08:10:28;;;;;;;23.75;16.20;;;9.40;99.90;;;;;;5124638;27;20438;-76
2022/03/25 08:12:57;;;;;;;19.42;14.10;;;9.30;99.90;;;;;;5132894;27;20035;-75
2022/03/25 08:15:24;;;;;;;20.50;14.68;;;9.40;99.90;;;;;;5113364;27;20123;-77
2022/03/25 08:18:05;;;;;;;19.50;15.20;;;9.60;99.90;;;;;;5093697;28;20043;-76
2022/03/25 08:20:35;;;;;;;23.95;16.15;;;9.80;99.90;;;;;;5109893;27;20043;-76
2022/03/25 08:23:02;;;;;;;24.75;15.90;;;9.90;99.90;;;;;;5113886;27;20046;-76
2022/03/25 08:28:17;;;;;;;20.40;13.80;;;10.00;99.90;;;;;;5112540;27;20055;-76
2022/03/25 08:30:44;;;;;;;16.60;12.25;;;10.10;99.90;;;;;;5113644;27;20058;-75
2022/03/25 08:33:10;;;;;;;24.25;15.70;;;10.10;99.90;;;;;;5113362;27;20107;-75
2022/03/25 08:35:38;;;;;;;17.00;12.27;;;10.10;99.90;;;;;;5113491;27;20046;-76
2022/03/25 08:38:05;;;;;;;20.17;14.25;;;10.20;99.90;;;;;;5096070;27;20047;-75
2022/03/25 08:40:32;;;;;;;18.33;12.95;;;10.20;99.90;;;;;;5113363;27;20072;-75
2022/03/25 08:42:58;;;;;;;19.50;13.45;;;10.40;99.90;;;;;;5113178;27;20051;-75
2022/03/25 08:45:25;;;;;;;21.45;13.82;;;10.40;99.90;;;;;;5114022;27;20114;-76
2022/03/25 08:47:51;;;;;;;23.23;14.85;;;10.60;99.90;;;;;;5096533;27;20114;-77
2022/03/25 08:50:18;;;;;;;18.75;12.73;;;10.70;99.90;;;;;;5110504;27;20131;-76
2022/03/25 08:52:45;;;;;;;20.08;14.10;;;10.90;99.90;;;;;;5114294;27;20039;-76
2022/03/25 08:55:13;;;;;;;20.30;13.02;;;10.90;99.90;;;;;;5130098;27;20062;-77
2022/03/25 08:57:39;;;;;;;23.98;15.55;;;10.90;99.90;;;;;;5097507;27;20047;-76
2022/03/25 09:00:12;;;;;;;22.13;13.90;;;10.90;99.90;;;;;;5112843;27;20080;-76
2022/03/25 09:02:39;;;;;;;17.13;12.05;;;10.90;99.90;;;;;;5114344;27;20537;-77
2022/03/25 09:05:06;;;;;;;16.55;11.20;;;11.10;99.90;;;;;;5114246;27;20082;-76
2022/03/25 09:07:32;;;;;;;19.20;12.68;;;11.20;99.90;;;;;;5114353;27;20035;-76
2022/03/25 09:09:57;;;;;;;17.38;12.00;;;11.20;99.10;;;;;;5097731;27;20175;-77
2022/03/25 09:12:23;;;;;;;19.88;13.27;;;11.30;99.80;;;;;;5113392;27;20477;-77
2022/03/25 09:14:50;;;;;;;20.58;12.35;;;11.30;99.40;;;;;;5112608;27;20114;-76
2022/03/25 09:17:17;;;;;;;20.38;13.48;;;11.40;99.90;;;;;;5132596;27;20050;-77
2022/03/25 09:19:43;;;;;;;20.27;12.70;;;11.50;99.90;;;;;;5112582;27;20610;-76
2022/03/25 09:22:10;;;;;;;15.88;10.45;;;11.60;99.90;;;;;;5112096;27;20135;-77
2022/03/25 09:24:36;;;;;;;13.80;9.65;;;11.70;99.30;;;;;;5130578;27;20027;-76
2022/03/25 09:27:02;;;;;;;16.83;10.38;;;11.80;97.60;;;;;;5096422;27;20485;-76
2022/03/25 09:29:28;;;;;;;18.75;11.85;;;11.80;98.50;;;;;;5096002;27;20035;-76
2022/03/25 09:31:54;;;;;;;19.38;11.93;;;11.80;96.70;;;;;;5112911;27;20096;-75
2022/03/25 09:37:05;;;;;;;16.70;11.98;;;12.00;95.60;;;;;;5091301;27;20114;-76
2022/03/25 09:39:30;;;;;;;17.20;11.20;;;12.10;95.60;;;;;;5113078;27;20043;-76
2022/03/25 09:41:58;;;;;;;19.42;11.68;;;12.20;97.50;;;;;;5113171;27;20073;-76
2022/03/25 09:44:24;;;;;;;17.17;11.52;;;12.40;94.60;;;;;;5096582;27;20108;-77
2022/03/25 09:46:50;;;;;;;13.73;9.57;;;12.40;94.20;;;;;;5096379;28;20451;-76
2022/03/25 09:49:18;;;;;;;13.35;9.68;;;12.50;93.70;;;;;;5112584;28;20080;-75
2022/03/25 09:51:44;;;;;;;14.32;9.38;;;12.60;94.80;;;;;;5113291;27;20354;-75
2022/03/25 09:54:12;;;;;;;;;;;12.70;94.80;;;;;;5113606;28;20443;-75
2022/03/25 09:56:37;;;;;;;18.67;11.02;;;12.80;94.50;;;;;;5096024;28;19926;-75
2022/03/25 09:59:03;;;;;;;12.65;9.27;;;12.80;94.20;;;;;;5112906;28;20043;-76
2022/03/25 10:01:29;;;;;;;10.77;7.30;;;12.90;94.30;;;;;;5112867;28;20108;-75
2022/03/25 10:03:54;;;;;;;11.10;8.48;;;13.00;94.20;;;;;;5112225;28;20080;-76
2022/03/25 10:06:20;;;;;;;17.25;11.65;;;13.10;94.40;;;;;;5095747;28;20458;-76
2022/03/25 10:08:59;;;;;;;15.40;11.00;;;13.20;95.90;;;;;;5113098;28;20053;-76
2022/03/25 10:11:32;;;;;;;18.15;11.90;;;13.30;94.20;;;;;;5131530;28;20126;-76
2022/03/25 10:14:23;;;;;;;16.40;11.43;;;13.30;94.40;;;;;;5112414;28;20072;-77
2022/03/25 10:16:53;;;;;;;18.48;12.63;;;13.30;92.30;;;;;;5108788;28;20490;-77
2022/03/25 10:19:21;;;;;;;22.52;13.73;;;13.40;94.10;;;;;;5130758;28;20070;-76
2022/03/25 10:21:58;;;;;;;18.98;13.13;;;13.50;94.00;;;;;;5131087;28;20157;-76
2022/03/25 10:24:38;;;;;;;16.80;12.50;;;13.70;93.00;;;;;;5112963;28;20466;-77
2022/03/25 10:27:07;;;;;;;21.38;15.73;;;13.90;94.00;;;;;;5112614;28;20047;-76
2022/03/25 10:29:37;;;;;;;17.67;12.30;;;14.00;92.20;;;;;;5131208;28;20104;-76
2022/03/25 10:32:09;;;;;;;25.00;18.05;;;14.30;93.90;;;;;;5109782;28;20059;-76
2022/03/25 10:34:39;;;;;;;23.35;15.52;;;14.40;92.60;;;;;;5104607;28;20121;-77
2022/03/25 10:37:11;;;;;;;18.05;13.70;;;14.50;91.40;;;;;;5125853;28;20047;-75
2022/03/25 10:39:37;;;;;;;20.95;14.90;;;14.70;93.00;;;;;;5108959;28;20046;-75
2022/03/25 10:42:05;;;;;;;19.90;14.23;;;14.80;92.80;;;;;;5108311;28;20129;-76
2022/03/25 10:44:40;;;;;;;24.35;15.85;;;15.00;92.50;;;;;;5110445;28;20078;-76
2022/03/25 10:47:15;;;;;;;25.45;17.25;;;15.00;91.10;;;;;;5090898;28;20053;-76
2022/03/25 10:49:43;;;;;;;21.50;15.27;;;15.10;91.50;;;;;;5091513;28;20038;-76
2022/03/25 10:52:32;;;;;;;20.20;15.00;;;15.30;90.70;;;;;;5115851;27;20431;-76
2022/03/25 10:55:17;;;;;;;20.40;13.88;;;15.50;89.80;;;;;;5111123;27;20046;-76
2022/03/25 10:57:55;;;;;;;21.23;14.43;;;15.70;90.70;;;;;;5110806;27;20051;-77
2022/03/25 11:00:22;;;;;;;23.92;15.38;;;15.80;89.90;;;;;;5113349;27;20041;-76
2022/03/25 11:02:48;;;;;;;24.20;14.95;;;15.80;90.10;;;;;;5108625;27;20044;-75
2022/03/25 11:05:14;;;;;;;21.83;14.48;;;15.90;88.20;;;;;;5089928;28;20131;-76
2022/03/25 11:07:45;;;;;;;21.75;14.48;;;15.90;85.00;;;;;;5114363;27;20047;-76
2022/03/25 11:10:17;;;;;;;20.23;14.18;;;16.30;88.60;;;;;;5116133;27;20476;-76
2022/03/25 11:12:51;;;;;;;22.55;15.05;;;16.30;86.10;;;;;;5113444;27;20043;-78
2022/03/25 11:15:19;;;;;;;22.92;15.68;;;16.50;87.60;;;;;;5113358;27;20035;-74
2022/03/25 11:17:46;;;;;;;21.02;13.10;;;16.50;85.80;;;;;;5098753;27;20039;-77
2022/03/25 11:20:18;;;;;;;14.02;10.55;;;16.60;86.50;;;;;;5132503;27;20419;-76
2022/03/25 11:23:16;;;;;;;24.08;15.07;;;16.80;87.10;;;;;;5115271;27;20140;-76
2022/03/25 11:25:51;;;;;;;24.45;15.45;;;16.80;84.00;;;;;;5089414;27;20051;-76
2022/03/25 11:28:20;;;;;;;21.90;15.68;;;16.80;81.60;;;;;;5115697;27;20082;-76
2022/03/25 11:31:00;;;;;;;22.13;15.73;;;16.70;81.20;;;;;;5115273;27;20070;-76
2022/03/25 11:33:28;;;;;;;26.23;15.77;;;16.90;80.30;;;;;;5115354;27;20150;-75
2022/03/25 11:36:15;;;;;;;20.95;15.02;;;16.80;78.50;;;;;;5115250;27;20541;-77
2022/03/25 11:38:42;;;;;;;28.17;16.25;;;16.80;77.80;;;;;;5115718;27;20043;-76
2022/03/25 11:41:25;;;;;;;22.50;15.20;;;16.80;76.80;;;;;;5115878;27;20043;-75
2022/03/25 11:44:17;;;;;;;17.77;12.63;;;17.10;79.70;;;;;;5115226;27;20035;-75
2022/03/25 11:47:01;;;;;;;20.58;12.75;;;17.70;80.30;;;;;;5133398;27;20181;-76
2022/03/25 11:49:29;;;;;;;19.45;12.20;;;17.80;77.00;;;;;;5115065;27;20042;-75
2022/03/25 11:51:55;;;;;;;18.17;12.68;;;17.70;78.30;;;;;;5115369;27;20043;-77
2022/03/25 11:54:40;;;;;;;16.63;10.43;;;17.30;75.60;;;;;;5098357;27;20035;-76
2022/03/25 11:57:22;;;;;;;19.50;12.52;;;17.40;76.10;;;;;;5114608;27;20043;-76
2022/03/25 11:59:53;;;;;;;21.08;12.23;;;17.30;73.80;;;;;;5097814;27;20039;-75
2022/03/25 12:02:27;;;;;;;20.15;11.45;;;17.20;73.00;;;;;;5114592;27;20039;-75
2022/03/25 12:04:53;;;;;;;17.33;11.13;;;17.10;73.20;;;;;;5115025;27;20035;-76
2022/03/25 12:07:19;;;;;;;19.15;11.88;;;17.20;74.00;;;;;;5114908;27;20039;-76
2022/03/25 12:09:46;;;;;;;;;;;16.90;71.90;;;;;;5115718;27;20039;-75
2022/03/25 12:12:12;;;;;;;15.48;9.63;;;16.80;71.30;;;;;;5114647;27;20454;-75
2022/03/25 12:15:09;;;;;;;21.52;13.10;;;17.00;72.30;;;;;;5133410;27;20054;-76
2022/03/25 12:17:35;;;;;;;17.83;11.02;;;17.10;71.20;;;;;;5111366;27;20572;-75
2022/03/25 12:20:01;;;;;;;15.45;9.43;;;17.20;69.10;;;;;;5114291;27;20050;-76
2022/03/25 12:22:29;;;;;;;17.92;10.98;;;17.40;69.90;;;;;;5114781;27;20046;-76
2022/03/25 12:25:05;;;;;;;18.30;10.70;;;17.10;70.00;;;;;;5114617;27;20390;-76
2022/03/25 12:27:31;;;;;;;16.02;10.27;;;17.20;67.80;;;;;;5111855;27;20084;-75
2022/03/25 12:29:56;;;;;;;13.82;9.32;;;17.10;66.50;;;;;;5113423;27;20069;-75
2022/03/25 12:32:24;;;;;;;15.15;10.40;;;17.10;66.70;;;;;;5096025;27;20047;-75
2022/03/25 12:35:26;;;;;;;14.07;9.55;;;17.10;66.90;;;;;;5112687;27;20043;-75
2022/03/25 12:38:18;;;;;;;13.77;10.40;;;17.30;67.20;;;;;;5095207;27;20785;-75
2022/03/25 12:40:44;;;;;;;16.65;11.05;;;17.20;66.60;;;;;;5103897;28;20046;-77
2022/03/25 12:43:11;;;;;;;19.45;14.23;;;17.00;68.40;;;;;;5110066;27;20039;-74
2022/03/25 12:45:45;;;;;;;18.50;14.13;;;16.90;68.90;;;;;;5084097;28;20043;-74
2022/03/25 12:48:18;;;;;;;23.70;15.52;;;16.50;69.50;;;;;;5106636;27;20058;-75
2022/03/25 12:50:47;;;;;;;19.10;14.38;;;16.60;70.20;;;;;;5110182;27;20050;-74
2022/03/25 12:53:14;;;;;;;19.80;13.70;;;16.40;70.80;;;;;;5111774;27;20126;-74